sensor_id;sensor_type;location;lat;lon;timestamp;P1;durP1;ratioP1;P2;durP2;ratioP2
20271;SDS011;10295;49.812;9.866;2022-08-19T00:02:00;34.73;;;22.87;;
20271;SDS011;10295;49.812;9.866;2022-08-19T00:04:29;35.00;;;23.67;;
20271;SDS011;10295;49.812;9.866;2022-08-19T00:06:57;39.93;;;23.30;;
20271;SDS011;10295;49.812;9.866;2022-08-19T00:09:24;31.90;;;21.73;;
20271;SDS011;10295;49.812;9.866;2022-08-19T00:11:52;35.10;;;22.63;;
20271;SDS011;10295;49.812;9.866;2022-08-19T00:14:22;32.77;;;22.30;;
20271;SDS011;10295;49.812;9.866;2022-08-19T00:16:50;33.90;;;22.30;;
20271;SDS011;10295;49.812;9.866;2022-08-19T00:19:21;37.57;;;23.73;;
20271;SDS011;10295;49.812;9.866;2022-08-19T00:21:48;36.20;;;22.70;;
20271;SDS011;10295;49.812;9.866;2022-08-19T00:24:15;36.10;;;23.77;;
20271;SDS011;10295;49.812;9.866;2022-08-19T00:26:43;32.80;;;22.43;;
20271;SDS011;10295;49.812;9.866;2022-08-19T00:29:12;34.90;;;23.23;;
20271;SDS011;10295;49.812;9.866;2022-08-19T00:31:40;38.00;;;23.33;;
20271;SDS011;10295;49.812;9.866;2022-08-19T00:34:09;37.80;;;22.83;;
20271;SDS011;10295;49.812;9.866;2022-08-19T00:36:38;34.23;;;22.40;;
20271;SDS011;10295;49.812;9.866;2022-08-19T00:39:05;33.90;;;22.50;;
20271;SDS011;10295;49.812;9.866;2022-08-19T00:41:32;37.53;;;23.07;;
20271;SDS011;10295;49.812;9.866;2022-08-19T00:44:04;32.03;;;20.90;;
20271;SDS011;10295;49.812;9.866;2022-08-19T00:46:32;33.67;;;22.07;;
20271;SDS011;10295;49.812;9.866;2022-08-19T00:49:02;35.40;;;22.73;;
20271;SDS011;10295;49.812;9.866;2022-08-19T00:51:32;36.30;;;23.03;;
20271;SDS011;10295;49.812;9.866;2022-08-19T00:54:00;36.20;;;22.23;;
20271;SDS011;10295;49.812;9.866;2022-08-19T00:56:28;36.83;;;22.97;;
20271;SDS011;10295;49.812;9.866;2022-08-19T00:58:56;34.83;;;22.13;;
20271;SDS011;10295;49.812;9.866;2022-08-19T01:01:25;33.57;;;21.67;;
20271;SDS011;10295;49.812;9.866;2022-08-19T01:03:52;33.33;;;22.00;;
20271;SDS011;10295;49.812;9.866;2022-08-19T01:06:23;34.43;;;22.47;;
20271;SDS011;10295;49.812;9.866;2022-08-19T01:08:50;36.23;;;23.13;;
20271;SDS011;10295;49.812;9.866;2022-08-19T01:11:18;34.10;;;21.97;;
20271;SDS011;10295;49.812;9.866;2022-08-19T01:13:45;35.17;;;22.10;;
20271;SDS011;10295;49.812;9.866;2022-08-19T01:16:15;33.17;;;20.50;;
20271;SDS011;10295;49.812;9.866;2022-08-19T01:18:43;35.83;;;20.73;;
20271;SDS011;10295;49.812;9.866;2022-08-19T01:21:12;35.77;;;22.90;;
20271;SDS011;10295;49.812;9.866;2022-08-19T01:23:43;37.07;;;23.03;;
20271;SDS011;10295;49.812;9.866;2022-08-19T01:26:12;34.70;;;22.87;;
20271;SDS011;10295;49.812;9.866;2022-08-19T01:28:40;35.37;;;22.47;;
20271;SDS011;10295;49.812;9.866;2022-08-19T01:31:09;34.30;;;22.03;;
20271;SDS011;10295;49.812;9.866;2022-08-19T01:33:53;32.97;;;21.20;;
20271;SDS011;10295;49.812;9.866;2022-08-19T01:36:26;35.67;;;22.57;;
20271;SDS011;10295;49.812;9.866;2022-08-19T01:38:55;33.10;;;21.30;;
20271;SDS011;10295;49.812;9.866;2022-08-19T01:41:22;34.63;;;22.60;;
20271;SDS011;10295;49.812;9.866;2022-08-19T01:43:50;35.20;;;22.53;;
20271;SDS011;10295;49.812;9.866;2022-08-19T01:46:37;36.27;;;22.73;;
20271;SDS011;10295;49.812;9.866;2022-08-19T01:49:05;36.23;;;22.50;;
20271;SDS011;10295;49.812;9.866;2022-08-19T01:51:32;34.50;;;21.50;;
20271;SDS011;10295;49.812;9.866;2022-08-19T01:54:05;34.30;;;22.10;;
20271;SDS011;10295;49.812;9.866;2022-08-19T01:56:33;36.53;;;22.50;;
20271;SDS011;10295;49.812;9.866;2022-08-19T01:59:01;31.80;;;20.77;;
20271;SDS011;10295;49.812;9.866;2022-08-19T02:01:29;35.30;;;22.23;;
20271;SDS011;10295;49.812;9.866;2022-08-19T02:04:01;33.30;;;21.57;;
20271;SDS011;10295;49.812;9.866;2022-08-19T02:06:28;33.30;;;22.73;;
20271;SDS011;10295;49.812;9.866;2022-08-19T02:08:56;34.77;;;21.27;;
20271;SDS011;10295;49.812;9.866;2022-08-19T02:11:24;33.07;;;21.37;;
20271;SDS011;10295;49.812;9.866;2022-08-19T02:13:53;31.47;;;21.03;;
20271;SDS011;10295;49.812;9.866;2022-08-19T02:16:20;36.57;;;22.60;;
20271;SDS011;10295;49.812;9.866;2022-08-19T02:18:48;33.33;;;21.13;;
20271;SDS011;10295;49.812;9.866;2022-08-19T02:21:16;33.43;;;21.33;;
20271;SDS011;10295;49.812;9.866;2022-08-19T02:23:44;36.23;;;21.80;;
20271;SDS011;10295;49.812;9.866;2022-08-19T02:26:11;33.47;;;20.90;;
20271;SDS011;10295;49.812;9.866;2022-08-19T02:28:39;32.83;;;21.73;;
20271;SDS011;10295;49.812;9.866;2022-08-19T02:31:10;33.07;;;21.57;;
20271;SDS011;10295;49.812;9.866;2022-08-19T02:33:37;36.03;;;21.87;;
20271;SDS011;10295;49.812;9.866;2022-08-19T02:36:05;35.53;;;21.53;;
20271;SDS011;10295;49.812;9.866;2022-08-19T02:38:33;32.67;;;21.30;;
20271;SDS011;10295;49.812;9.866;2022-08-19T02:41:02;32.93;;;21.50;;
20271;SDS011;10295;49.812;9.866;2022-08-19T02:43:30;36.53;;;22.33;;
20271;SDS011;10295;49.812;9.866;2022-08-19T02:45:59;33.83;;;21.13;;
20271;SDS011;10295;49.812;9.866;2022-08-19T02:48:27;33.97;;;22.40;;
20271;SDS011;10295;49.812;9.866;2022-08-19T02:50:54;37.03;;;22.83;;
20271;SDS011;10295;49.812;9.866;2022-08-19T02:53:23;33.93;;;21.97;;
20271;SDS011;10295;49.812;9.866;2022-08-19T02:55:50;36.37;;;21.53;;
20271;SDS011;10295;49.812;9.866;2022-08-19T02:58:19;32.60;;;21.43;;
20271;SDS011;10295;49.812;9.866;2022-08-19T03:00:48;37.50;;;22.90;;
20271;SDS011;10295;49.812;9.866;2022-08-19T03:03:16;34.97;;;22.43;;
20271;SDS011;10295;49.812;9.866;2022-08-19T03:05:44;32.43;;;21.37;;
20271;SDS011;10295;49.812;9.866;2022-08-19T03:08:22;35.60;;;21.93;;
20271;SDS011;10295;49.812;9.866;2022-08-19T03:10:50;34.90;;;21.93;;
20271;SDS011;10295;49.812;9.866;2022-08-19T03:13:19;33.40;;;21.77;;
20271;SDS011;10295;49.812;9.866;2022-08-19T03:15:46;33.43;;;21.83;;
20271;SDS011;10295;49.812;9.866;2022-08-19T03:18:14;35.40;;;21.50;;
20271;SDS011;10295;49.812;9.866;2022-08-19T03:20:50;35.40;;;21.10;;
20271;SDS011;10295;49.812;9.866;2022-08-19T03:23:18;32.27;;;21.33;;
20271;SDS011;10295;49.812;9.866;2022-08-19T03:25:47;31.47;;;21.37;;
20271;SDS011;10295;49.812;9.866;2022-08-19T03:28:28;34.20;;;21.63;;
20271;SDS011;10295;49.812;9.866;2022-08-19T03:31:03;33.30;;;22.23;;
20271;SDS011;10295;49.812;9.866;2022-08-19T03:33:51;35.57;;;21.20;;
20271;SDS011;10295;49.812;9.866;2022-08-19T03:36:19;30.70;;;20.47;;
20271;SDS011;10295;49.812;9.866;2022-08-19T03:38:50;31.97;;;20.83;;
20271;SDS011;10295;49.812;9.866;2022-08-19T03:41:29;35.40;;;21.70;;
20271;SDS011;10295;49.812;9.866;2022-08-19T03:44:09;32.03;;;20.90;;
20271;SDS011;10295;49.812;9.866;2022-08-19T03:46:43;31.20;;;20.33;;
20271;SDS011;10295;49.812;9.866;2022-08-19T03:49:10;34.40;;;21.90;;
20271;SDS011;10295;49.812;9.866;2022-08-19T03:51:40;34.10;;;21.60;;
20271;SDS011;10295;49.812;9.866;2022-08-19T03:54:08;35.20;;;20.77;;
20271;SDS011;10295;49.812;9.866;2022-08-19T03:56:36;36.23;;;22.03;;
20271;SDS011;10295;49.812;9.866;2022-08-19T03:59:05;35.03;;;22.10;;
20271;SDS011;10295;49.812;9.866;2022-08-19T04:01:32;32.93;;;21.30;;
20271;SDS011;10295;49.812;9.866;2022-08-19T04:04:00;35.33;;;20.27;;
20271;SDS011;10295;49.812;9.866;2022-08-19T04:06:31;33.10;;;21.33;;
20271;SDS011;10295;49.812;9.866;2022-08-19T04:08:59;36.13;;;21.87;;
20271;SDS011;10295;49.812;9.866;2022-08-19T04:11:28;32.93;;;21.67;;
20271;SDS011;10295;49.812;9.866;2022-08-19T04:14:10;30.63;;;20.33;;
20271;SDS011;10295;49.812;9.866;2022-08-19T04:16:37;35.17;;;21.80;;
20271;SDS011;10295;49.812;9.866;2022-08-19T04:19:04;37.57;;;20.50;;
20271;SDS011;10295;49.812;9.866;2022-08-19T04:21:32;33.77;;;20.53;;
20271;SDS011;10295;49.812;9.866;2022-08-19T04:23:59;29.40;;;20.50;;
20271;SDS011;10295;49.812;9.866;2022-08-19T04:26:30;32.70;;;20.93;;
20271;SDS011;10295;49.812;9.866;2022-08-19T04:28:58;33.37;;;20.77;;
20271;SDS011;10295;49.812;9.866;2022-08-19T04:31:27;33.80;;;22.50;;
20271;SDS011;10295;49.812;9.866;2022-08-19T04:33:58;32.00;;;20.43;;
20271;SDS011;10295;49.812;9.866;2022-08-19T04:36:27;33.20;;;21.03;;
20271;SDS011;10295;49.812;9.866;2022-08-19T04:38:55;34.63;;;21.33;;
20271;SDS011;10295;49.812;9.866;2022-08-19T04:41:23;32.77;;;21.57;;
20271;SDS011;10295;49.812;9.866;2022-08-19T04:44:09;33.60;;;21.90;;
20271;SDS011;10295;49.812;9.866;2022-08-19T04:46:36;32.67;;;21.03;;
20271;SDS011;10295;49.812;9.866;2022-08-19T04:49:16;32.60;;;20.67;;
20271;SDS011;10295;49.812;9.866;2022-08-19T04:51:44;33.47;;;20.97;;
20271;SDS011;10295;49.812;9.866;2022-08-19T04:54:13;31.90;;;21.70;;
20271;SDS011;10295;49.812;9.866;2022-08-19T04:56:56;31.97;;;20.40;;
20271;SDS011;10295;49.812;9.866;2022-08-19T04:59:23;32.17;;;21.17;;
20271;SDS011;10295;49.812;9.866;2022-08-19T05:01:50;33.23;;;20.70;;
20271;SDS011;10295;49.812;9.866;2022-08-19T05:04:18;30.33;;;20.13;;
20271;SDS011;10295;49.812;9.866;2022-08-19T05:06:47;33.23;;;20.07;;
20271;SDS011;10295;49.812;9.866;2022-08-19T05:09:15;28.93;;;19.20;;
20271;SDS011;10295;49.812;9.866;2022-08-19T05:11:43;29.90;;;19.43;;
20271;SDS011;10295;49.812;9.866;2022-08-19T05:14:10;31.57;;;19.30;;
20271;SDS011;10295;49.812;9.866;2022-08-19T05:16:39;28.77;;;18.20;;
20271;SDS011;10295;49.812;9.866;2022-08-19T05:19:07;29.43;;;18.33;;
20271;SDS011;10295;49.812;9.866;2022-08-19T05:21:53;29.27;;;18.43;;
20271;SDS011;10295;49.812;9.866;2022-08-19T05:24:39;27.90;;;17.00;;
20271;SDS011;10295;49.812;9.866;2022-08-19T05:27:26;28.07;;;17.53;;
20271;SDS011;10295;49.812;9.866;2022-08-19T05:29:54;26.67;;;17.40;;
20271;SDS011;10295;49.812;9.866;2022-08-19T05:32:21;27.97;;;16.53;;
20271;SDS011;10295;49.812;9.866;2022-08-19T05:34:49;26.10;;;16.37;;
20271;SDS011;10295;49.812;9.866;2022-08-19T05:37:16;30.50;;;17.33;;
20271;SDS011;10295;49.812;9.866;2022-08-19T05:39:44;27.03;;;15.93;;
20271;SDS011;10295;49.812;9.866;2022-08-19T05:42:16;25.53;;;16.53;;
20271;SDS011;10295;49.812;9.866;2022-08-19T05:44:46;26.63;;;15.90;;
20271;SDS011;10295;49.812;9.866;2022-08-19T05:47:15;25.67;;;15.70;;
20271;SDS011;10295;49.812;9.866;2022-08-19T05:49:45;24.77;;;16.23;;
20271;SDS011;10295;49.812;9.866;2022-08-19T05:52:13;22.77;;;15.87;;
20271;SDS011;10295;49.812;9.866;2022-08-19T05:54:44;25.03;;;15.43;;
20271;SDS011;10295;49.812;9.866;2022-08-19T05:57:17;24.70;;;16.37;;
20271;SDS011;10295;49.812;9.866;2022-08-19T05:59:44;26.20;;;16.33;;
20271;SDS011;10295;49.812;9.866;2022-08-19T06:02:14;23.63;;;16.20;;
20271;SDS011;10295;49.812;9.866;2022-08-19T06:04:41;23.93;;;16.40;;
20271;SDS011;10295;49.812;9.866;2022-08-19T06:07:11;24.00;;;16.10;;
20271;SDS011;10295;49.812;9.866;2022-08-19T06:09:39;27.67;;;16.50;;
20271;SDS011;10295;49.812;9.866;2022-08-19T06:12:08;26.43;;;15.90;;
20271;SDS011;10295;49.812;9.866;2022-08-19T06:14:36;21.60;;;13.90;;
20271;SDS011;10295;49.812;9.866;2022-08-19T06:17:07;22.93;;;15.60;;
20271;SDS011;10295;49.812;9.866;2022-08-19T06:19:34;25.50;;;15.23;;
20271;SDS011;10295;49.812;9.866;2022-08-19T06:22:06;25.53;;;15.70;;
20271;SDS011;10295;49.812;9.866;2022-08-19T06:24:34;23.27;;;14.90;;
20271;SDS011;10295;49.812;9.866;2022-08-19T06:27:02;29.52;;;15.40;;
20271;SDS011;10295;49.812;9.866;2022-08-19T06:29:31;30.65;;;14.80;;
20271;SDS011;10295;49.812;9.866;2022-08-19T06:31:59;23.58;;;14.07;;
20271;SDS011;10295;49.812;9.866;2022-08-19T06:34:27;26.80;;;14.55;;
20271;SDS011;10295;49.812;9.866;2022-08-19T06:36:55;21.40;;;13.57;;
20271;SDS011;10295;49.812;9.866;2022-08-19T06:39:23;20.67;;;13.00;;
20271;SDS011;10295;49.812;9.866;2022-08-19T06:41:53;21.33;;;13.13;;
20271;SDS011;10295;49.812;9.866;2022-08-19T06:44:25;18.98;;;12.38;;
20271;SDS011;10295;49.812;9.866;2022-08-19T06:46:53;21.55;;;13.38;;
20271;SDS011;10295;49.812;9.866;2022-08-19T06:49:21;24.25;;;13.25;;
20271;SDS011;10295;49.812;9.866;2022-08-19T06:51:49;22.38;;;14.57;;
20271;SDS011;10295;49.812;9.866;2022-08-19T06:54:17;25.02;;;13.68;;
20271;SDS011;10295;49.812;9.866;2022-08-19T06:56:45;22.15;;;14.15;;
20271;SDS011;10295;49.812;9.866;2022-08-19T06:59:14;25.90;;;14.45;;
20271;SDS011;10295;49.812;9.866;2022-08-19T07:01:43;24.88;;;14.63;;
20271;SDS011;10295;49.812;9.866;2022-08-19T07:04:17;24.50;;;14.23;;
20271;SDS011;10295;49.812;9.866;2022-08-19T07:06:45;24.55;;;14.95;;
20271;SDS011;10295;49.812;9.866;2022-08-19T07:09:20;23.70;;;13.93;;
20271;SDS011;10295;49.812;9.866;2022-08-19T07:11:48;20.55;;;13.48;;
20271;SDS011;10295;49.812;9.866;2022-08-19T07:14:16;24.23;;;14.10;;
20271;SDS011;10295;49.812;9.866;2022-08-19T07:16:46;22.65;;;14.07;;
20271;SDS011;10295;49.812;9.866;2022-08-19T07:19:14;23.77;;;14.00;;
20271;SDS011;10295;49.812;9.866;2022-08-19T07:21:45;21.83;;;14.05;;
20271;SDS011;10295;49.812;9.866;2022-08-19T07:24:12;22.30;;;14.07;;
20271;SDS011;10295;49.812;9.866;2022-08-19T07:26:41;24.63;;;14.77;;
20271;SDS011;10295;49.812;9.866;2022-08-19T07:29:09;19.77;;;13.18;;
20271;SDS011;10295;49.812;9.866;2022-08-19T07:31:39;21.48;;;14.13;;
20271;SDS011;10295;49.812;9.866;2022-08-19T07:34:10;23.00;;;14.20;;
20271;SDS011;10295;49.812;9.866;2022-08-19T07:36:40;22.55;;;13.10;;
20271;SDS011;10295;49.812;9.866;2022-08-19T07:39:09;21.90;;;13.63;;
20271;SDS011;10295;49.812;9.866;2022-08-19T07:41:37;22.67;;;12.88;;
20271;SDS011;10295;49.812;9.866;2022-08-19T07:44:04;19.00;;;12.73;;
20271;SDS011;10295;49.812;9.866;2022-08-19T07:46:34;19.83;;;13.20;;
20271;SDS011;10295;49.812;9.866;2022-08-19T07:49:01;20.63;;;12.93;;
20271;SDS011;10295;49.812;9.866;2022-08-19T07:51:29;19.27;;;13.10;;
20271;SDS011;10295;49.812;9.866;2022-08-19T07:54:01;19.63;;;13.27;;
20271;SDS011;10295;49.812;9.866;2022-08-19T07:56:29;19.60;;;13.00;;
20271;SDS011;10295;49.812;9.866;2022-08-19T07:58:56;18.80;;;12.85;;
20271;SDS011;10295;49.812;9.866;2022-08-19T08:01:24;19.58;;;12.73;;
20271;SDS011;10295;49.812;9.866;2022-08-19T08:03:52;20.50;;;13.35;;
20271;SDS011;10295;49.812;9.866;2022-08-19T08:06:38;19.27;;;12.55;;
20271;SDS011;10295;49.812;9.866;2022-08-19T08:09:26;20.35;;;13.27;;
20271;SDS011;10295;49.812;9.866;2022-08-19T08:11:55;21.02;;;12.52;;
20271;SDS011;10295;49.812;9.866;2022-08-19T08:14:31;22.50;;;12.10;;
20271;SDS011;10295;49.812;9.866;2022-08-19T08:17:03;19.02;;;11.48;;
20271;SDS011;10295;49.812;9.866;2022-08-19T08:19:36;21.55;;;11.88;;
20271;SDS011;10295;49.812;9.866;2022-08-19T08:22:04;21.23;;;10.98;;
20271;SDS011;10295;49.812;9.866;2022-08-19T08:24:34;19.25;;;11.38;;
20271;SDS011;10295;49.812;9.866;2022-08-19T08:27:02;19.90;;;11.73;;
20271;SDS011;10295;49.812;9.866;2022-08-19T08:29:36;17.90;;;10.98;;
20271;SDS011;10295;49.812;9.866;2022-08-19T08:32:07;19.35;;;10.73;;
20271;SDS011;10295;49.812;9.866;2022-08-19T08:34:40;18.17;;;10.55;;
20271;SDS011;10295;49.812;9.866;2022-08-19T08:37:07;19.17;;;11.20;;
20271;SDS011;10295;49.812;9.866;2022-08-19T08:39:34;16.42;;;11.02;;
20271;SDS011;10295;49.812;9.866;2022-08-19T08:42:11;17.55;;;10.82;;
20271;SDS011;10295;49.812;9.866;2022-08-19T08:44:53;21.15;;;11.68;;
20271;SDS011;10295;49.812;9.866;2022-08-19T08:47:30;16.98;;;10.93;;
20271;SDS011;10295;49.812;9.866;2022-08-19T08:50:01;18.02;;;11.50;;
20271;SDS011;10295;49.812;9.866;2022-08-19T08:52:36;16.70;;;11.00;;
20271;SDS011;10295;49.812;9.866;2022-08-19T08:55:06;17.58;;;10.38;;
20271;SDS011;10295;49.812;9.866;2022-08-19T09:00:17;16.45;;;10.90;;
20271;SDS011;10295;49.812;9.866;2022-08-19T09:02:45;17.23;;;10.50;;
20271;SDS011;10295;49.812;9.866;2022-08-19T09:05:16;19.08;;;10.18;;
20271;SDS011;10295;49.812;9.866;2022-08-19T09:15:28;15.32;;;9.32;;
20271;SDS011;10295;49.812;9.866;2022-08-19T09:18:02;19.85;;;9.35;;
20271;SDS011;10295;49.812;9.866;2022-08-19T09:20:32;13.88;;;8.93;;
20271;SDS011;10295;49.812;9.866;2022-08-19T09:23:00;12.70;;;8.80;;
20271;SDS011;10295;49.812;9.866;2022-08-19T09:25:27;12.88;;;8.82;;
20271;SDS011;10295;49.812;9.866;2022-08-19T09:27:56;16.80;;;8.40;;
20271;SDS011;10295;49.812;9.866;2022-08-19T09:30:30;15.50;;;8.02;;
20271;SDS011;10295;49.812;9.866;2022-08-19T09:32:58;16.65;;;8.10;;
20271;SDS011;10295;49.812;9.866;2022-08-19T09:35:26;13.25;;;7.25;;
20271;SDS011;10295;49.812;9.866;2022-08-19T09:37:55;13.90;;;7.03;;
20271;SDS011;10295;49.812;9.866;2022-08-19T09:40:26;13.02;;;7.18;;
20271;SDS011;10295;49.812;9.866;2022-08-19T09:42:56;12.57;;;6.88;;
20271;SDS011;10295;49.812;9.866;2022-08-19T09:45:23;13.15;;;6.80;;
20271;SDS011;10295;49.812;9.866;2022-08-19T09:47:51;11.88;;;6.32;;
20271;SDS011;10295;49.812;9.866;2022-08-19T09:50:21;14.57;;;6.00;;
20271;SDS011;10295;49.812;9.866;2022-08-19T09:52:49;13.98;;;6.10;;
20271;SDS011;10295;49.812;9.866;2022-08-19T09:55:22;11.98;;;5.18;;
20271;SDS011;10295;49.812;9.866;2022-08-19T09:57:56;10.25;;;5.05;;
20271;SDS011;10295;49.812;9.866;2022-08-19T10:00:23;9.70;;;4.90;;
20271;SDS011;10295;49.812;9.866;2022-08-19T10:02:50;11.48;;;5.00;;
20271;SDS011;10295;49.812;9.866;2022-08-19T10:05:18;11.77;;;5.30;;
20271;SDS011;10295;49.812;9.866;2022-08-19T10:08:07;9.63;;;4.30;;
20271;SDS011;10295;49.812;9.866;2022-08-19T10:10:39;8.32;;;4.32;;
20271;SDS011;10295;49.812;9.866;2022-08-19T10:13:11;9.20;;;3.88;;
20271;SDS011;10295;49.812;9.866;2022-08-19T10:15:38;8.07;;;4.07;;
20271;SDS011;10295;49.812;9.866;2022-08-19T10:18:13;9.75;;;4.03;;
20271;SDS011;10295;49.812;9.866;2022-08-19T10:20:42;9.35;;;4.10;;
20271;SDS011;10295;49.812;9.866;2022-08-19T10:23:17;8.40;;;3.63;;
20271;SDS011;10295;49.812;9.866;2022-08-19T10:25:45;8.20;;;3.45;;
20271;SDS011;10295;49.812;9.866;2022-08-19T10:28:13;9.65;;;3.70;;
20271;SDS011;10295;49.812;9.866;2022-08-19T10:30:41;10.80;;;3.85;;
20271;SDS011;10295;49.812;9.866;2022-08-19T10:33:08;8.05;;;3.67;;
20271;SDS011;10295;49.812;9.866;2022-08-19T10:35:36;8.85;;;3.78;;
20271;SDS011;10295;49.812;9.866;2022-08-19T10:38:21;9.07;;;3.72;;
20271;SDS011;10295;49.812;9.866;2022-08-19T10:40:56;11.25;;;3.45;;
20271;SDS011;10295;49.812;9.866;2022-08-19T10:43:24;8.30;;;3.30;;
20271;SDS011;10295;49.812;9.866;2022-08-19T10:45:51;6.85;;;3.20;;
20271;SDS011;10295;49.812;9.866;2022-08-19T10:48:21;8.98;;;2.92;;
20271;SDS011;10295;49.812;9.866;2022-08-19T10:50:48;7.32;;;3.20;;
20271;SDS011;10295;49.812;9.866;2022-08-19T10:53:34;9.80;;;3.53;;
20271;SDS011;10295;49.812;9.866;2022-08-19T10:56:01;7.90;;;3.08;;
20271;SDS011;10295;49.812;9.866;2022-08-19T10:58:47;8.95;;;3.30;;
20271;SDS011;10295;49.812;9.866;2022-08-19T11:01:15;6.40;;;3.13;;
20271;SDS011;10295;49.812;9.866;2022-08-19T11:03:42;8.60;;;3.22;;
20271;SDS011;10295;49.812;9.866;2022-08-19T11:06:11;18.08;;;3.47;;
20271;SDS011;10295;49.812;9.866;2022-08-19T11:08:38;7.97;;;3.47;;
20271;SDS011;10295;49.812;9.866;2022-08-19T11:11:06;7.95;;;3.60;;
20271;SDS011;10295;49.812;9.866;2022-08-19T11:13:34;8.20;;;3.45;;
20271;SDS011;10295;49.812;9.866;2022-08-19T11:16:05;7.50;;;3.17;;
20271;SDS011;10295;49.812;9.866;2022-08-19T11:18:37;10.15;;;3.35;;
20271;SDS011;10295;49.812;9.866;2022-08-19T11:21:08;9.75;;;3.60;;
20271;SDS011;10295;49.812;9.866;2022-08-19T11:23:36;7.00;;;3.33;;
20271;SDS011;10295;49.812;9.866;2022-08-19T11:26:03;7.63;;;3.38;;
20271;SDS011;10295;49.812;9.866;2022-08-19T11:28:31;11.90;;;3.72;;
20271;SDS011;10295;49.812;9.866;2022-08-19T11:30:58;8.23;;;3.42;;
20271;SDS011;10295;49.812;9.866;2022-08-19T11:33:25;8.27;;;3.65;;
20271;SDS011;10295;49.812;9.866;2022-08-19T11:35:53;8.45;;;3.45;;
20271;SDS011;10295;49.812;9.866;2022-08-19T11:38:20;8.65;;;3.38;;
20271;SDS011;10295;49.812;9.866;2022-08-19T11:40:53;7.43;;;3.30;;
20271;SDS011;10295;49.812;9.866;2022-08-19T11:43:21;9.18;;;3.33;;
20271;SDS011;10295;49.812;9.866;2022-08-19T11:45:48;7.90;;;2.95;;
20271;SDS011;10295;49.812;9.866;2022-08-19T11:48:15;10.10;;;3.17;;
20271;SDS011;10295;49.812;9.866;2022-08-19T11:50:43;8.63;;;3.45;;
20271;SDS011;10295;49.812;9.866;2022-08-19T11:53:10;7.80;;;3.20;;
20271;SDS011;10295;49.812;9.866;2022-08-19T11:55:38;8.23;;;3.30;;
20271;SDS011;10295;49.812;9.866;2022-08-19T11:58:09;10.68;;;3.70;;
20271;SDS011;10295;49.812;9.866;2022-08-19T12:00:44;7.65;;;3.20;;
20271;SDS011;10295;49.812;9.866;2022-08-19T12:03:12;9.50;;;3.53;;
20271;SDS011;10295;49.812;9.866;2022-08-19T12:05:40;7.78;;;3.28;;
20271;SDS011;10295;49.812;9.866;2022-08-19T12:08:07;7.60;;;3.20;;
20271;SDS011;10295;49.812;9.866;2022-08-19T12:10:35;7.53;;;3.13;;
20271;SDS011;10295;49.812;9.866;2022-08-19T12:13:02;7.20;;;3.30;;
20271;SDS011;10295;49.812;9.866;2022-08-19T12:15:29;8.18;;;2.90;;
20271;SDS011;10295;49.812;9.866;2022-08-19T12:18:03;8.88;;;3.28;;
20271;SDS011;10295;49.812;9.866;2022-08-19T12:20:30;8.48;;;3.30;;
20271;SDS011;10295;49.812;9.866;2022-08-19T12:23:01;7.55;;;2.65;;
20271;SDS011;10295;49.812;9.866;2022-08-19T12:25:28;8.40;;;2.80;;
20271;SDS011;10295;49.812;9.866;2022-08-19T12:27:57;6.72;;;2.78;;
20271;SDS011;10295;49.812;9.866;2022-08-19T12:30:24;7.32;;;2.88;;
20271;SDS011;10295;49.812;9.866;2022-08-19T12:32:52;8.63;;;2.80;;
20271;SDS011;10295;49.812;9.866;2022-08-19T12:35:19;7.57;;;2.85;;
20271;SDS011;10295;49.812;9.866;2022-08-19T12:37:47;6.43;;;2.70;;
20271;SDS011;10295;49.812;9.866;2022-08-19T12:40:22;10.90;;;2.60;;
20271;SDS011;10295;49.812;9.866;2022-08-19T12:42:52;5.65;;;2.30;;
20271;SDS011;10295;49.812;9.866;2022-08-19T12:45:19;6.50;;;2.50;;
20271;SDS011;10295;49.812;9.866;2022-08-19T12:47:47;7.93;;;2.45;;
20271;SDS011;10295;49.812;9.866;2022-08-19T12:50:14;7.00;;;2.55;;
20271;SDS011;10295;49.812;9.866;2022-08-19T12:52:42;7.18;;;2.30;;
20271;SDS011;10295;49.812;9.866;2022-08-19T12:55:09;5.88;;;2.55;;
20271;SDS011;10295;49.812;9.866;2022-08-19T12:57:37;7.28;;;2.30;;
20271;SDS011;10295;49.812;9.866;2022-08-19T13:02:35;6.53;;;2.35;;
20271;SDS011;10295;49.812;9.866;2022-08-19T13:05:04;8.63;;;2.30;;
20271;SDS011;10295;49.812;9.866;2022-08-19T13:07:32;5.05;;;2.30;;
20271;SDS011;10295;49.812;9.866;2022-08-19T13:10:00;5.57;;;2.65;;
20271;SDS011;10295;49.812;9.866;2022-08-19T13:12:28;5.43;;;2.22;;
20271;SDS011;10295;49.812;9.866;2022-08-19T13:14:55;7.70;;;2.30;;
20271;SDS011;10295;49.812;9.866;2022-08-19T13:17:23;5.35;;;2.13;;
20271;SDS011;10295;49.812;9.866;2022-08-19T13:19:51;4.72;;;2.10;;
20271;SDS011;10295;49.812;9.866;2022-08-19T13:22:18;8.25;;;3.45;;
20271;SDS011;10295;49.812;9.866;2022-08-19T13:24:45;4.57;;;1.90;;
20271;SDS011;10295;49.812;9.866;2022-08-19T13:27:12;5.82;;;1.90;;
20271;SDS011;10295;49.812;9.866;2022-08-19T13:29:40;6.20;;;2.03;;
20271;SDS011;10295;49.812;9.866;2022-08-19T13:32:26;5.70;;;2.10;;
20271;SDS011;10295;49.812;9.866;2022-08-19T13:35:14;8.10;;;2.22;;
20271;SDS011;10295;49.812;9.866;2022-08-19T13:37:42;4.70;;;2.00;;
20271;SDS011;10295;49.812;9.866;2022-08-19T13:40:20;5.15;;;2.08;;
20271;SDS011;10295;49.812;9.866;2022-08-19T13:42:50;5.30;;;2.08;;
20271;SDS011;10295;49.812;9.866;2022-08-19T13:45:19;5.55;;;1.98;;
20271;SDS011;10295;49.812;9.866;2022-08-19T13:47:47;6.45;;;2.28;;
20271;SDS011;10295;49.812;9.866;2022-08-19T13:50:15;4.05;;;1.83;;
20271;SDS011;10295;49.812;9.866;2022-08-19T13:52:43;4.72;;;2.10;;
20271;SDS011;10295;49.812;9.866;2022-08-19T13:55:10;5.28;;;1.77;;
20271;SDS011;10295;49.812;9.866;2022-08-19T13:57:38;5.53;;;2.05;;
20271;SDS011;10295;49.812;9.866;2022-08-19T14:00:07;4.82;;;2.03;;
20271;SDS011;10295;49.812;9.866;2022-08-19T14:02:37;5.40;;;2.17;;
20271;SDS011;10295;49.812;9.866;2022-08-19T14:05:05;5.03;;;2.10;;
20271;SDS011;10295;49.812;9.866;2022-08-19T14:07:32;5.55;;;2.00;;
20271;SDS011;10295;49.812;9.866;2022-08-19T14:10:00;5.00;;;2.08;;
20271;SDS011;10295;49.812;9.866;2022-08-19T14:12:27;4.82;;;1.95;;
20271;SDS011;10295;49.812;9.866;2022-08-19T14:14:54;6.13;;;2.00;;
20271;SDS011;10295;49.812;9.866;2022-08-19T14:17:21;4.85;;;2.05;;
20271;SDS011;10295;49.812;9.866;2022-08-19T14:19:48;5.70;;;1.80;;
20271;SDS011;10295;49.812;9.866;2022-08-19T14:22:16;5.68;;;2.00;;
20271;SDS011;10295;49.812;9.866;2022-08-19T14:24:47;4.22;;;1.90;;
20271;SDS011;10295;49.812;9.866;2022-08-19T14:27:16;5.20;;;2.20;;
20271;SDS011;10295;49.812;9.866;2022-08-19T14:29:43;6.65;;;2.13;;
20271;SDS011;10295;49.812;9.866;2022-08-19T14:32:11;6.57;;;2.15;;
20271;SDS011;10295;49.812;9.866;2022-08-19T14:34:42;6.03;;;2.15;;
20271;SDS011;10295;49.812;9.866;2022-08-19T14:37:12;6.18;;;2.15;;
20271;SDS011;10295;49.812;9.866;2022-08-19T14:39:42;4.50;;;1.75;;
20271;SDS011;10295;49.812;9.866;2022-08-19T14:42:11;5.32;;;2.00;;
20271;SDS011;10295;49.812;9.866;2022-08-19T14:44:41;4.90;;;1.98;;
20271;SDS011;10295;49.812;9.866;2022-08-19T14:47:08;4.38;;;1.85;;
20271;SDS011;10295;49.812;9.866;2022-08-19T14:49:35;6.70;;;2.22;;
20271;SDS011;10295;49.812;9.866;2022-08-19T14:52:09;6.40;;;2.08;;
20271;SDS011;10295;49.812;9.866;2022-08-19T14:54:37;4.53;;;2.10;;
20271;SDS011;10295;49.812;9.866;2022-08-19T14:57:04;5.00;;;1.90;;
20271;SDS011;10295;49.812;9.866;2022-08-19T14:59:31;4.10;;;2.05;;